Time;durP1;ratioP1;P1;durP2;ratioP2;P2;SDS_P1;SDS_P2;PMS_P1;PMS_P2;Temp;Humidity;BMP_temperature;BMP_pressure;BME280_temperature;BME280_humidity;BME280_pressure;Samples;Min_cycle;Max_cycle;Signal;HPM_P1;HPM_P2
2024/03/16 00:01:42;;;;;;;3.10;1.40;;;12.30;99.90;;;;;;4972037;28;20481;-72
2024/03/16 00:04:27;;;;;;;2.70;1.20;;;12.30;99.90;;;;;;4970631;28;20449;-73
2024/03/16 00:07:13;;;;;;;3.07;1.10;;;12.30;99.90;;;;;;4982004;28;20488;-73
2024/03/16 00:09:58;;;;;;;2.50;1.13;;;12.30;99.90;;;;;;4967749;28;20500;-73
2024/03/16 00:12:44;;;;;;;3.63;1.30;;;12.30;99.90;;;;;;4972620;28;20464;-73
2024/03/16 00:15:30;;;;;;;5.33;1.20;;;12.30;99.90;;;;;;4972345;28;20832;-73
2024/03/16 00:18:16;;;;;;;3.67;1.20;;;12.30;99.90;;;;;;4972773;28;20445;-73
2024/03/16 00:21:01;;;;;;;3.90;1.30;;;12.20;99.90;;;;;;4971039;28;20459;-73
2024/03/16 00:23:47;;;;;;;3.60;1.53;;;12.20;99.90;;;;;;4969756;28;21168;-73
2024/03/16 00:26:33;;;;;;;1.93;1.20;;;12.20;99.90;;;;;;4978165;28;20457;-73
2024/03/16 00:29:19;;;;;;;2.93;1.07;;;12.20;99.90;;;;;;4968877;28;20454;-73
2024/03/16 00:32:05;;;;;;;2.50;1.00;;;12.20;99.90;;;;;;4970771;28;20457;-73
2024/03/16 00:34:50;;;;;;;2.23;1.00;;;12.10;99.90;;;;;;4966084;28;22120;-72
2024/03/16 00:37:36;;;;;;;3.30;1.20;;;12.00;99.90;;;;;;4977380;28;20508;-73
2024/03/16 00:40:22;;;;;;;5.00;1.70;;;12.00;99.90;;;;;;4966351;28;20489;-73
2024/03/16 00:43:08;;;;;;;4.83;1.27;;;12.00;99.90;;;;;;4962510;28;20497;-72
2024/03/16 00:45:54;;;;;;;5.77;1.37;;;12.00;99.90;;;;;;4967432;28;20854;-72
2024/03/16 00:48:39;;;;;;;2.23;1.30;;;12.00;99.90;;;;;;4965836;28;20480;-72
2024/03/16 00:51:27;;;;;;;2.40;1.53;;;11.90;99.90;;;;;;4964581;28;20477;-73
2024/03/16 00:54:13;;;;;;;3.37;1.60;;;11.90;99.90;;;;;;4975470;28;20489;-73
2024/03/16 00:56:58;;;;;;;3.93;1.37;;;11.90;99.90;;;;;;4976058;28;20537;-73
2024/03/16 00:59:44;;;;;;;2.90;1.40;;;11.90;99.90;;;;;;4983165;28;20427;-73
2024/03/16 01:02:30;;;;;;;2.90;1.50;;;11.90;99.90;;;;;;4968510;28;20521;-73
2024/03/16 01:05:16;;;;;;;3.13;1.13;;;11.90;99.90;;;;;;4972483;28;20433;-73
2024/03/16 01:08:01;;;;;;;3.07;1.20;;;11.90;99.90;;;;;;4972323;28;20500;-73
2024/03/16 01:10:48;;;;;;;12.17;2.17;;;11.90;99.90;;;;;;4972889;28;20612;-73
2024/03/16 01:13:35;;;;;;;2.97;1.40;;;11.90;99.90;;;;;;4973026;28;20453;-73
2024/03/16 01:16:21;;;;;;;3.27;1.67;;;11.90;99.90;;;;;;4975385;28;20547;-73
2024/03/16 01:19:06;;;;;;;2.83;1.20;;;11.80;99.90;;;;;;4974562;28;20442;-73
2024/03/16 01:21:52;;;;;;;3.13;1.30;;;11.90;99.90;;;;;;4973286;28;20457;-73
2024/03/16 01:24:37;;;;;;;3.67;1.07;;;11.90;99.90;;;;;;4964859;28;20828;-73
2024/03/16 01:27:23;;;;;;;5.87;1.30;;;11.90;99.90;;;;;;4973417;28;20481;-73
2024/03/16 01:30:10;;;;;;;4.60;1.50;;;11.90;99.90;;;;;;4980302;28;20544;-72
2024/03/16 01:32:56;;;;;;;1.83;1.07;;;11.80;99.90;;;;;;4987562;28;20420;-73
2024/03/16 01:35:41;;;;;;;8.83;1.70;;;11.80;99.90;;;;;;4977157;28;20453;-73
2024/03/16 01:38:27;;;;;;;7.60;1.80;;;11.80;99.90;;;;;;4977285;28;20479;-73
2024/03/16 01:41:13;;;;;;;6.37;1.30;;;11.80;99.90;;;;;;4974795;28;20469;-74
2024/03/16 01:44:02;;;;;;;4.40;2.07;;;11.80;99.90;;;;;;4977199;28;20639;-73
2024/03/16 01:46:47;;;;;;;2.30;1.20;;;11.80;99.90;;;;;;4972094;28;20769;-73
2024/03/16 01:49:33;;;;;;;3.33;1.37;;;11.80;99.90;;;;;;4979912;28;20920;-73
2024/03/16 01:52:19;;;;;;;2.90;1.37;;;11.80;99.90;;;;;;4978904;28;20445;-73
2024/03/16 01:55:05;;;;;;;4.90;1.13;;;11.80;99.90;;;;;;4977517;28;20437;-73
2024/03/16 01:57:51;;;;;;;4.47;1.30;;;11.80;99.90;;;;;;4975482;28;20437;-73
2024/03/16 02:00:37;;;;;;;2.03;1.10;;;11.80;99.90;;;;;;4974725;28;20453;-73
2024/03/16 02:03:22;;;;;;;2.13;1.43;;;11.70;99.90;;;;;;4979949;28;20441;-73
2024/03/16 02:06:08;;;;;;;4.23;1.30;;;11.70;99.90;;;;;;4979607;28;20449;-73
2024/03/16 02:08:54;;;;;;;3.67;1.50;;;11.70;99.90;;;;;;4982642;28;21032;-73
2024/03/16 02:11:39;;;;;;;3.10;1.20;;;11.70;99.90;;;;;;4967617;28;20479;-73
2024/03/16 02:14:25;;;;;;;4.10;1.53;;;11.70;99.90;;;;;;4973195;28;20500;-73
2024/03/16 02:17:11;;;;;;;4.03;1.73;;;11.60;99.90;;;;;;4969553;28;20495;-73
2024/03/16 02:19:56;;;;;;;3.67;1.23;;;11.50;99.90;;;;;;4967163;28;20593;-73
2024/03/16 02:22:42;;;;;;;2.37;1.20;;;11.40;99.90;;;;;;4968850;28;20464;-73
2024/03/16 02:25:28;;;;;;;3.57;1.57;;;11.40;99.90;;;;;;4965257;28;20829;-73
2024/03/16 02:28:14;;;;;;;3.20;1.23;;;11.40;99.90;;;;;;4979571;28;20484;-73
2024/03/16 02:31:00;;;;;;;3.03;1.47;;;11.30;99.90;;;;;;4969087;28;20482;-72
2024/03/16 02:33:45;;;;;;;7.10;1.60;;;11.30;99.90;;;;;;4984040;28;20509;-73
2024/03/16 02:36:31;;;;;;;2.70;1.63;;;11.20;99.90;;;;;;4970289;28;20451;-73
2024/03/16 02:39:17;;;;;;;2.50;1.63;;;11.20;99.90;;;;;;4966899;28;20455;-72
2024/03/16 02:42:03;;;;;;;2.70;1.60;;;11.10;99.90;;;;;;4982284;28;20469;-73
2024/03/16 02:44:49;;;;;;;3.63;1.90;;;11.20;99.90;;;;;;4985139;28;20466;-73
2024/03/16 02:47:35;;;;;;;2.73;1.77;;;11.10;99.90;;;;;;4971713;28;20454;-73
2024/03/16 02:50:20;;;;;;;2.00;1.30;;;11.20;99.90;;;;;;4974046;28;20821;-73
2024/03/16 02:53:06;;;;;;;3.90;2.03;;;11.20;99.90;;;;;;4974472;28;20462;-73
2024/03/16 02:55:51;;;;;;;3.93;1.70;;;11.20;99.90;;;;;;4969690;28;20603;-73
2024/03/16 02:58:37;;;;;;;6.93;1.80;;;11.30;99.90;;;;;;4975398;28;20460;-73
2024/03/16 03:01:23;;;;;;;3.83;1.90;;;11.30;99.90;;;;;;4974065;28;20612;-73
2024/03/16 03:04:08;;;;;;;7.03;2.20;;;11.30;99.90;;;;;;4975068;28;20489;-73
2024/03/16 03:06:54;;;;;;;6.33;1.80;;;11.30;99.90;;;;;;4983960;28;20565;-73
2024/03/16 03:09:40;;;;;;;9.17;2.27;;;11.30;99.90;;;;;;4973369;28;20483;-72
2024/03/16 03:12:26;;;;;;;5.00;1.70;;;11.30;99.90;;;;;;4971831;28;20457;-71
2024/03/16 03:15:12;;;;;;;3.50;2.00;;;11.20;99.90;;;;;;4970427;28;20886;-72
2024/03/16 03:17:58;;;;;;;4.03;1.63;;;11.20;99.90;;;;;;4971647;28;20454;-72
2024/03/16 03:20:45;;;;;;;4.80;2.20;;;11.20;99.90;;;;;;4973459;28;20531;-73
2024/03/16 03:23:30;;;;;;;2.83;2.37;;;11.30;99.90;;;;;;4972399;28;20826;-73
2024/03/16 03:26:16;;;;;;;5.10;2.70;;;11.30;99.90;;;;;;4971313;28;20956;-73
2024/03/16 03:29:02;;;;;;;5.17;2.20;;;11.30;99.90;;;;;;4968813;28;20485;-73
2024/03/16 03:31:47;;;;;;;4.43;2.07;;;11.30;99.90;;;;;;4971504;28;20564;-73
2024/03/16 03:34:33;;;;;;;5.13;2.40;;;11.30;99.90;;;;;;4976317;28;20460;-73
2024/03/16 03:37:20;;;;;;;3.33;2.07;;;11.30;99.90;;;;;;4971665;28;20548;-73
2024/03/16 03:40:07;;;;;;;3.80;2.07;;;11.40;99.90;;;;;;4970263;28;20484;-73
2024/03/16 03:42:55;;;;;;;5.67;2.33;;;11.40;99.90;;;;;;4973503;28;20984;-73
2024/03/16 03:45:49;;;;;;;9.83;2.27;;;11.40;99.90;;;;;;4969522;28;20461;-73
2024/03/16 03:48:43;;;;;;;3.70;1.70;;;11.30;99.90;;;;;;4968194;28;20476;-73
2024/03/16 03:51:29;;;;;;;4.07;1.97;;;11.30;99.90;;;;;;4973164;28;21020;-73
2024/03/16 03:54:14;;;;;;;3.80;1.60;;;11.30;99.90;;;;;;4976683;28;20454;-74
2024/03/16 03:57:00;;;;;;;2.77;1.50;;;11.20;99.90;;;;;;4968829;28;20482;-74
2024/03/16 03:59:45;;;;;;;4.27;1.40;;;11.20;99.90;;;;;;4968567;28;20515;-71
2024/03/16 04:02:31;;;;;;;2.77;1.37;;;11.20;99.90;;;;;;4973448;28;20465;-72
2024/03/16 04:05:17;;;;;;;3.40;1.37;;;11.20;99.90;;;;;;4979249;28;20516;-72
2024/03/16 04:08:04;;;;;;;3.53;1.30;;;11.20;99.90;;;;;;4976895;28;20469;-72
2024/03/16 04:10:50;;;;;;;3.07;1.00;;;11.20;99.90;;;;;;4971378;28;20445;-72
2024/03/16 04:13:36;;;;;;;2.33;1.10;;;11.20;99.90;;;;;;4972978;28;20454;-72
2024/03/16 04:16:22;;;;;;;7.50;1.40;;;11.20;99.90;;;;;;4972210;28;20996;-73
2024/03/16 04:19:07;;;;;;;3.00;1.27;;;11.20;99.90;;;;;;4975882;28;20996;-73
2024/03/16 04:21:54;;;;;;;3.90;1.43;;;11.20;99.90;;;;;;4975131;28;21020;-73
2024/03/16 04:24:39;;;;;;;2.00;1.00;;;11.10;99.90;;;;;;4975505;28;20537;-73
2024/03/16 04:27:25;;;;;;;3.53;1.07;;;11.20;99.90;;;;;;4981181;28;20449;-72
2024/03/16 04:30:10;;;;;;;3.20;1.40;;;11.20;99.90;;;;;;4972163;28;20551;-73
2024/03/16 04:32:56;;;;;;;2.93;1.27;;;11.10;99.90;;;;;;4983731;28;20445;-72
2024/03/16 04:35:42;;;;;;;3.33;1.27;;;11.20;99.90;;;;;;4984696;28;20804;-73
2024/03/16 04:38:28;;;;;;;3.50;1.20;;;11.20;99.90;;;;;;4972798;28;20794;-75
2024/03/16 04:41:13;;;;;;;1.67;1.00;;;11.20;99.90;;;;;;4986008;28;20474;-73
2024/03/16 04:43:59;;;;;;;4.23;1.60;;;11.30;99.90;;;;;;4976893;28;20438;-75
2024/03/16 04:46:45;;;;;;;2.53;0.90;;;11.20;99.90;;;;;;4971445;28;21436;-72
2024/03/16 04:49:30;;;;;;;5.00;1.43;;;11.20;99.90;;;;;;4977710;28;20551;-73
2024/03/16 04:52:16;;;;;;;2.40;0.90;;;11.20;99.90;;;;;;4971568;28;20578;-74
2024/03/16 04:55:03;;;;;;;1.90;0.90;;;11.20;99.90;;;;;;4971305;28;20778;-73
2024/03/16 04:57:48;;;;;;;2.57;1.00;;;11.20;99.90;;;;;;4970788;28;21030;-73
2024/03/16 05:00:34;;;;;;;2.33;0.90;;;11.20;99.90;;;;;;4976834;28;20432;-72
2024/03/16 05:03:20;;;;;;;2.17;0.80;;;11.20;99.90;;;;;;4972935;28;20472;-73
2024/03/16 05:06:06;;;;;;;3.57;1.00;;;11.00;99.90;;;;;;4972681;28;20427;-72
2024/03/16 05:08:51;;;;;;;3.33;1.17;;;11.00;99.90;;;;;;4975536;28;20501;-75
2024/03/16 05:11:37;;;;;;;4.10;1.50;;;10.90;99.90;;;;;;4968679;28;20476;-73
2024/03/16 05:14:23;;;;;;;9.23;2.10;;;10.90;99.90;;;;;;4968784;28;20827;-73
2024/03/16 05:17:08;;;;;;;2.60;1.57;;;10.90;99.90;;;;;;4971227;28;20449;-74
2024/03/16 05:19:54;;;;;;;3.13;1.77;;;11.00;99.90;;;;;;4980359;28;20476;-73
2024/03/16 05:22:40;;;;;;;5.03;1.30;;;11.00;99.90;;;;;;4968233;28;20952;-73
2024/03/16 05:25:26;;;;;;;3.13;1.10;;;11.00;99.90;;;;;;4970315;28;21031;-73
2024/03/16 05:28:12;;;;;;;5.70;1.40;;;11.00;99.90;;;;;;4970121;28;20589;-73
2024/03/16 05:30:57;;;;;;;2.53;1.13;;;11.00;99.90;;;;;;4971371;28;20480;-73
2024/03/16 05:33:43;;;;;;;2.07;0.90;;;11.10;99.90;;;;;;4970469;28;20839;-73
2024/03/16 05:36:29;;;;;;;2.83;1.13;;;11.10;99.90;;;;;;4976058;28;20453;-72
2024/03/16 05:39:15;;;;;;;4.70;1.30;;;11.00;99.90;;;;;;4972304;28;20564;-75
2024/03/16 05:42:01;;;;;;;2.00;1.27;;;11.10;99.90;;;;;;4974598;28;20431;-73
2024/03/16 05:44:46;;;;;;;5.37;1.13;;;11.10;99.90;;;;;;4972886;28;20533;-73
2024/03/16 05:47:32;;;;;;;3.83;1.67;;;11.10;99.90;;;;;;4972881;28;20456;-74
2024/03/16 05:50:18;;;;;;;3.23;1.20;;;11.10;99.90;;;;;;4972012;28;21120;-75
2024/03/16 05:53:04;;;;;;;3.57;1.10;;;11.10;99.90;;;;;;4973009;28;20452;-73
2024/03/16 05:55:50;;;;;;;2.47;1.03;;;11.10;99.90;;;;;;4972929;28;20506;-74
2024/03/16 05:58:36;;;;;;;3.77;1.33;;;11.10;99.90;;;;;;4977593;28;20453;-74
2024/03/16 06:01:21;;;;;;;7.43;1.20;;;11.10;99.90;;;;;;4973595;28;21020;-73
2024/03/16 06:04:07;;;;;;;2.13;1.10;;;11.20;99.90;;;;;;4973391;28;20910;-73
2024/03/16 06:06:52;;;;;;;3.07;1.20;;;11.10;99.90;;;;;;4986467;28;20431;-73
2024/03/16 06:09:38;;;;;;;2.97;1.50;;;11.20;99.90;;;;;;4972157;28;20516;-74
2024/03/16 06:12:24;;;;;;;5.70;1.73;;;11.20;99.90;;;;;;4976680;28;20457;-73
2024/03/16 06:15:10;;;;;;;2.87;1.10;;;11.20;99.90;;;;;;4971769;28;20431;-73
2024/03/16 06:17:56;;;;;;;3.00;1.33;;;11.10;99.90;;;;;;4984914;28;20577;-74
2024/03/16 06:20:42;;;;;;;3.93;1.20;;;11.10;99.90;;;;;;4973014;28;20632;-73
2024/03/16 06:23:27;;;;;;;2.83;1.30;;;11.10;99.90;;;;;;4973424;28;21085;-73
2024/03/16 06:26:17;;;;;;;3.90;1.20;;;11.10;99.90;;;;;;4976726;28;20458;-73
2024/03/16 06:29:08;;;;;;;4.20;1.27;;;11.10;99.90;;;;;;4976051;28;20612;-73
2024/03/16 06:32:04;;;;;;;2.63;1.00;;;11.10;99.90;;;;;;4973832;28;20431;-72
2024/03/16 06:34:50;;;;;;;2.10;1.20;;;11.10;99.90;;;;;;4970307;28;20916;-73
2024/03/16 06:37:36;;;;;;;3.20;1.47;;;11.20;99.90;;;;;;4971441;28;20484;-73
2024/03/16 06:40:22;;;;;;;1.50;0.97;;;11.20;99.90;;;;;;4972042;28;20636;-74
2024/03/16 06:43:08;;;;;;;2.03;1.30;;;11.10;99.90;;;;;;4972133;28;20427;-73
2024/03/16 06:45:53;;;;;;;8.27;1.20;;;11.10;99.90;;;;;;4971113;28;20517;-73
2024/03/16 06:48:39;;;;;;;2.97;1.30;;;11.10;99.90;;;;;;4971360;28;20624;-75
2024/03/16 06:51:24;;;;;;;1.73;1.10;;;11.10;99.90;;;;;;4976761;28;20482;-74
2024/03/16 06:54:10;;;;;;;3.10;1.40;;;11.20;99.90;;;;;;4971150;28;20447;-74
2024/03/16 06:56:56;;;;;;;3.07;1.27;;;11.20;99.90;;;;;;4978664;28;20464;-73
2024/03/16 06:59:41;;;;;;;3.13;1.40;;;11.20;99.90;;;;;;4971040;28;20539;-74
2024/03/16 07:02:27;;;;;;;2.87;1.50;;;11.10;99.90;;;;;;4972758;28;20447;-73
2024/03/16 07:05:13;;;;;;;2.83;1.40;;;11.20;99.90;;;;;;4987532;28;20469;-73
2024/03/16 07:07:59;;;;;;;2.80;1.40;;;11.30;99.90;;;;;;4972899;28;20473;-73
2024/03/16 07:10:45;;;;;;;2.87;1.30;;;11.30;99.90;;;;;;4972275;28;20492;-74
2024/03/16 07:13:31;;;;;;;1.97;1.33;;;11.40;99.90;;;;;;4973478;28;20588;-73
2024/03/16 07:16:16;;;;;;;2.43;1.07;;;11.40;99.90;;;;;;4972237;28;20574;-73
2024/03/16 07:19:02;;;;;;;1.47;0.90;;;11.50;99.90;;;;;;4973209;28;20465;-75
2024/03/16 07:21:48;;;;;;;3.53;1.20;;;11.40;99.90;;;;;;4974496;28;20474;-74
2024/03/16 07:24:34;;;;;;;8.87;1.50;;;11.50;99.90;;;;;;4974780;28;20430;-73
2024/03/16 07:27:20;;;;;;;2.73;1.30;;;11.50;99.90;;;;;;4972210;28;20462;-73
2024/03/16 07:30:06;;;;;;;2.30;1.20;;;11.40;99.90;;;;;;4986660;28;20847;-74
2024/03/16 07:32:51;;;;;;;3.40;1.70;;;11.40;99.90;;;;;;4984503;28;20918;-73
2024/03/16 07:35:39;;;;;;;4.30;1.70;;;11.40;99.90;;;;;;4973273;28;20509;-73
2024/03/16 07:38:25;;;;;;;5.23;1.70;;;11.40;99.90;;;;;;4972789;28;20466;-73
2024/03/16 07:41:11;;;;;;;9.87;1.53;;;11.40;99.90;;;;;;4969206;28;20625;-73
2024/03/16 07:43:56;;;;;;;2.13;1.30;;;11.50;99.90;;;;;;4972127;28;20644;-75
2024/03/16 07:46:42;;;;;;;4.67;1.67;;;11.50;99.90;;;;;;4965164;28;20452;-73
2024/03/16 07:49:28;;;;;;;3.70;2.00;;;11.50;99.90;;;;;;4972643;28;20459;-73
2024/03/16 07:52:13;;;;;;;2.83;1.17;;;11.60;99.90;;;;;;4968958;28;20460;-73
2024/03/16 07:54:59;;;;;;;2.63;1.30;;;11.50;99.90;;;;;;4976546;28;20465;-73
2024/03/16 07:57:45;;;;;;;2.87;1.20;;;11.50;99.90;;;;;;4968739;28;20458;-73
2024/03/16 08:00:31;;;;;;;4.10;1.37;;;11.50;99.90;;;;;;4975894;28;20853;-75
2024/03/16 08:03:17;;;;;;;2.73;1.40;;;11.60;99.90;;;;;;4982343;28;20442;-74
2024/03/16 08:06:07;;;;;;;5.33;1.37;;;11.60;99.90;;;;;;4975767;28;20461;-73
2024/03/16 08:08:52;;;;;;;6.37;1.60;;;11.70;99.90;;;;;;4974204;28;20596;-73
2024/03/16 08:11:38;;;;;;;2.30;1.33;;;11.70;99.90;;;;;;4972541;28;21012;-73
2024/03/16 08:14:24;;;;;;;3.77;1.70;;;11.90;99.90;;;;;;4975291;28;20408;-73
2024/03/16 08:17:10;;;;;;;4.47;1.60;;;11.80;99.90;;;;;;4975416;28;20463;-74
2024/03/16 08:19:56;;;;;;;2.80;1.40;;;11.90;99.90;;;;;;4968904;28;21024;-74
2024/03/16 08:22:42;;;;;;;4.13;1.40;;;11.90;99.90;;;;;;4964536;28;20828;-72
2024/03/16 08:25:32;;;;;;;4.07;2.33;;;11.90;99.90;;;;;;4968999;28;20461;-74
2024/03/16 08:28:17;;;;;;;2.63;1.60;;;12.00;99.90;;;;;;4967435;28;20473;-72
2024/03/16 08:31:04;;;;;;;3.73;1.87;;;11.90;99.90;;;;;;4968950;28;20481;-73
2024/03/16 08:33:50;;;;;;;9.00;2.30;;;12.00;99.90;;;;;;4967017;28;20436;-73
2024/03/16 08:36:37;;;;;;;5.23;2.70;;;12.00;99.90;;;;;;4979180;28;20460;-72
2024/03/16 08:39:23;;;;;;;3.70;1.97;;;12.00;99.90;;;;;;4967611;28;20546;-73
2024/03/16 08:42:09;;;;;;;5.53;2.27;;;12.00;99.90;;;;;;4978126;28;20462;-73
2024/03/16 08:44:55;;;;;;;3.00;1.73;;;12.00;99.90;;;;;;4969005;28;20589;-75
2024/03/16 08:47:41;;;;;;;2.90;2.00;;;12.00;99.90;;;;;;4965812;28;20479;-73
2024/03/16 08:50:27;;;;;;;2.57;1.90;;;12.10;99.90;;;;;;4965728;28;20490;-75
2024/03/16 08:53:13;;;;;;;4.60;1.83;;;12.10;99.90;;;;;;4967373;28;20425;-76
2024/03/16 08:56:01;;;;;;;4.30;2.03;;;12.20;99.90;;;;;;4969214;28;20508;-73
2024/03/16 08:58:46;;;;;;;4.33;1.83;;;12.20;99.90;;;;;;4966336;28;20508;-73
2024/03/16 09:01:31;;;;;;;2.73;2.13;;;12.20;99.90;;;;;;4977887;28;20478;-73
2024/03/16 09:04:17;;;;;;;4.30;1.97;;;12.30;99.90;;;;;;4965428;28;20435;-73
2024/03/16 09:07:02;;;;;;;2.50;1.50;;;12.20;99.90;;;;;;4969354;28;20985;-73
2024/03/16 09:09:48;;;;;;;6.40;2.00;;;12.20;99.90;;;;;;4967644;28;21107;-73
2024/03/16 09:12:34;;;;;;;3.67;1.80;;;12.30;99.90;;;;;;4966010;28;20461;-73
2024/03/16 09:15:20;;;;;;;3.77;2.50;;;12.40;99.90;;;;;;4972262;28;20461;-73
2024/03/16 09:18:06;;;;;;;3.60;2.27;;;12.40;99.90;;;;;;4970379;28;20488;-74
2024/03/16 09:20:52;;;;;;;5.83;2.17;;;12.30;99.90;;;;;;4972866;28;20845;-72
2024/03/16 09:23:37;;;;;;;4.50;2.20;;;12.40;99.90;;;;;;4973373;28;20955;-72
2024/03/16 09:26:23;;;;;;;4.40;2.03;;;12.40;99.90;;;;;;4966407;28;20429;-74
2024/03/16 09:29:09;;;;;;;3.87;2.30;;;12.40;99.90;;;;;;4966118;28;20500;-73
2024/03/16 09:31:55;;;;;;;3.83;2.20;;;12.40;99.90;;;;;;4964687;28;20485;-74
2024/03/16 09:34:41;;;;;;;4.80;2.70;;;12.40;99.90;;;;;;4966550;28;20450;-73
2024/03/16 09:37:26;;;;;;;4.27;2.17;;;12.40;99.90;;;;;;4967076;28;20808;-75
2024/03/16 09:40:13;;;;;;;6.97;2.67;;;12.40;99.90;;;;;;4963511;28;20478;-74
2024/03/16 09:42:59;;;;;;;4.30;2.70;;;12.40;99.90;;;;;;4963696;28;20457;-73
2024/03/16 09:45:45;;;;;;;6.43;2.37;;;12.40;99.90;;;;;;4964314;28;20946;-73
2024/03/16 09:48:31;;;;;;;4.33;2.07;;;12.50;99.90;;;;;;4964658;28;20444;-72
2024/03/16 09:51:17;;;;;;;5.27;2.60;;;12.60;99.90;;;;;;4967262;28;20493;-73
2024/03/16 09:54:08;;;;;;;6.33;2.50;;;12.60;99.90;;;;;;4966476;28;20567;-73
2024/03/16 09:56:53;;;;;;;7.83;2.80;;;12.60;99.90;;;;;;4964678;28;20448;-73
2024/03/16 09:59:39;;;;;;;3.87;2.67;;;12.60;99.90;;;;;;4968000;28;20802;-73
2024/03/16 10:02:25;;;;;;;12.27;3.73;;;12.60;99.90;;;;;;4970567;28;20456;-73
2024/03/16 10:05:11;;;;;;;7.37;2.70;;;12.60;99.90;;;;;;4967129;28;21243;-73
2024/03/16 10:07:57;;;;;;;4.67;2.80;;;12.60;99.90;;;;;;4967098;28;20968;-73
2024/03/16 10:10:43;;;;;;;5.90;2.20;;;12.70;99.90;;;;;;4967803;28;20606;-73
2024/03/16 10:13:29;;;;;;;6.30;3.47;;;12.80;99.90;;;;;;4964545;28;21083;-73
2024/03/16 10:16:14;;;;;;;5.80;2.63;;;12.80;99.90;;;;;;4965601;28;20514;-73
2024/03/16 10:19:00;;;;;;;4.57;2.63;;;12.80;99.90;;;;;;4970094;28;20436;-73
2024/03/16 10:21:46;;;;;;;4.50;3.10;;;12.80;99.90;;;;;;4972635;28;20439;-73
2024/03/16 10:24:31;;;;;;;7.00;3.00;;;12.80;99.90;;;;;;4970125;28;20473;-73
2024/03/16 10:27:17;;;;;;;4.70;2.60;;;12.80;99.90;;;;;;4970491;28;20431;-73
2024/03/16 10:30:04;;;;;;;5.40;2.77;;;12.70;99.90;;;;;;4970353;28;21041;-73
2024/03/16 10:32:53;;;;;;;6.40;2.83;;;12.70;99.90;;;;;;4970454;28;20477;-73
2024/03/16 10:35:39;;;;;;;10.03;2.80;;;12.80;99.90;;;;;;4969407;28;20518;-73
2024/03/16 10:38:26;;;;;;;4.10;2.90;;;13.10;99.90;;;;;;4967870;28;20512;-74
2024/03/16 10:41:12;;;;;;;3.90;2.60;;;13.50;99.90;;;;;;4969156;28;20477;-74
2024/03/16 10:43:58;;;;;;;4.80;2.60;;;13.90;99.90;;;;;;4970515;28;20922;-73
2024/03/16 10:46:43;;;;;;;4.23;2.30;;;14.30;99.90;;;;;;4964916;28;20466;-73
2024/03/16 10:49:29;;;;;;;3.23;2.23;;;14.60;99.90;;;;;;4965529;28;20652;-73
2024/03/16 10:52:15;;;;;;;6.87;1.90;;;14.80;99.90;;;;;;4970365;28;20537;-73
2024/03/16 10:55:01;;;;;;;2.93;1.80;;;14.90;99.90;;;;;;4970213;28;20675;-73
2024/03/16 10:57:46;;;;;;;2.77;1.80;;;15.00;99.90;;;;;;4968488;28;20795;-73
2024/03/16 11:00:35;;;;;;;3.40;1.80;;;14.90;99.90;;;;;;4974727;28;20469;-73
2024/03/16 11:03:25;;;;;;;2.00;1.30;;;14.70;99.90;;;;;;4963409;28;20500;-73
2024/03/16 11:06:15;;;;;;;2.70;1.33;;;14.50;99.90;;;;;;4969041;28;20465;-73
2024/03/16 11:09:00;;;;;;;3.83;1.20;;;14.40;99.90;;;;;;4981171;28;20445;-73
2024/03/16 11:11:46;;;;;;;1.57;0.73;;;14.40;99.90;;;;;;4985500;28;20982;-73
2024/03/16 11:14:32;;;;;;;2.73;1.13;;;14.60;99.90;;;;;;4975196;28;20935;-73
2024/03/16 11:17:27;;;;;;;1.90;1.10;;;14.80;99.90;;;;;;4976259;28;20498;-73
2024/03/16 11:20:36;;;;;;;3.07;1.70;;;14.90;99.90;;;;;;4973825;28;20955;-73
2024/03/16 11:23:21;;;;;;;3.60;1.33;;;14.80;99.90;;;;;;4988037;28;20446;-73
2024/03/16 11:26:34;;;;;;;2.47;0.90;;;14.90;99.90;;;;;;4974628;28;20797;-73
2024/03/16 11:29:19;;;;;;;2.73;1.00;;;15.00;99.90;;;;;;4987583;28;20417;-73
2024/03/16 11:32:05;;;;;;;2.00;0.90;;;15.00;99.90;;;;;;4973780;28;20854;-73
2024/03/16 11:34:50;;;;;;;2.10;0.80;;;15.00;99.90;;;;;;4968292;28;20441;-73
2024/03/16 11:37:35;;;;;;;2.00;0.90;;;15.00;99.90;;;;;;4965335;28;20500;-73
2024/03/16 11:40:27;;;;;;;1.93;0.90;;;14.80;99.90;;;;;;4968416;28;20463;-73
2024/03/16 11:43:13;;;;;;;2.07;0.90;;;14.80;99.90;;;;;;4968912;28;20474;-73
2024/03/16 11:45:57;;;;;;;2.87;1.43;;;14.80;99.90;;;;;;4966299;28;20489;-73
2024/03/16 11:48:42;;;;;;;1.60;0.80;;;15.00;99.90;;;;;;4969296;28;20445;-73
2024/03/16 11:51:28;;;;;;;1.63;0.83;;;15.00;99.90;;;;;;4968320;28;20609;-73
2024/03/16 11:54:14;;;;;;;4.30;0.80;;;14.70;99.90;;;;;;4968244;28;20436;-73
2024/03/16 11:57:01;;;;;;;1.97;0.73;;;14.30;99.90;;;;;;4973708;28;20443;-73
2024/03/16 11:59:45;;;;;;;1.30;0.50;;;13.90;99.90;;;;;;4970031;28;21092;-74
2024/03/16 12:02:31;;;;;;;1.37;0.60;;;13.60;99.90;;;;;;4980971;28;20480;-73
2024/03/16 12:05:16;;;;;;;3.30;1.20;;;13.30;99.90;;;;;;4972564;28;20461;-73
2024/03/16 12:08:04;;;;;;;2.20;1.00;;;13.10;99.90;;;;;;4972270;28;20507;-73
2024/03/16 12:10:49;;;;;;;4.23;1.67;;;12.90;99.90;;;;;;4969252;28;20612;-73
2024/03/16 12:13:34;;;;;;;1.90;1.00;;;12.90;99.90;;;;;;4968088;28;20481;-73
2024/03/16 12:16:20;;;;;;;2.77;1.30;;;12.70;99.90;;;;;;4967121;28;20514;-73
2024/03/16 12:19:07;;;;;;;2.40;1.10;;;12.80;99.90;;;;;;4968994;28;20465;-73
2024/03/16 12:21:54;;;;;;;2.07;1.20;;;12.70;99.90;;;;;;4970087;28;20529;-73
2024/03/16 12:24:38;;;;;;;1.80;1.10;;;12.60;99.90;;;;;;4968055;28;20457;-73
2024/03/16 12:27:24;;;;;;;2.13;1.53;;;12.50;99.90;;;;;;4968163;28;20824;-73
2024/03/16 12:30:09;;;;;;;3.57;1.30;;;12.50;99.90;;;;;;4968978;28;20485;-73
2024/03/16 12:32:55;;;;;;;3.03;1.60;;;12.50;99.90;;;;;;4973178;28;20456;-73
2024/03/16 12:35:41;;;;;;;2.50;1.50;;;12.30;99.90;;;;;;4982568;28;20936;-73
2024/03/16 12:38:26;;;;;;;2.10;1.43;;;12.20;99.90;;;;;;4967165;28;20903;-73
2024/03/16 12:41:12;;;;;;;2.00;1.47;;;12.30;99.90;;;;;;4970077;28;20517;-73
2024/03/16 12:43:58;;;;;;;2.20;1.73;;;12.40;99.90;;;;;;4970340;28;20446;-73
2024/03/16 12:46:45;;;;;;;2.20;1.60;;;12.30;99.90;;;;;;4963474;28;20592;-73
2024/03/16 12:49:30;;;;;;;3.07;1.80;;;12.30;99.90;;;;;;4966175;28;21646;-73
2024/03/16 12:52:15;;;;;;;4.20;1.83;;;12.40;99.90;;;;;;4968323;28;20947;-73
2024/03/16 12:55:00;;;;;;;3.17;1.97;;;12.40;99.90;;;;;;4965013;28;20581;-73
2024/03/16 12:57:47;;;;;;;5.40;2.20;;;12.40;99.90;;;;;;4970810;28;20448;-73
2024/03/16 13:00:32;;;;;;;2.77;2.07;;;12.40;99.90;;;;;;4968857;28;20583;-73
2024/03/16 13:03:18;;;;;;;6.80;2.70;;;12.50;99.90;;;;;;4967513;28;20453;-73
2024/03/16 13:06:03;;;;;;;4.80;2.40;;;12.50;99.90;;;;;;4964438;28;20517;-73
2024/03/16 13:08:48;;;;;;;4.00;2.60;;;12.60;99.90;;;;;;4968972;28;20490;-73
2024/03/16 13:11:35;;;;;;;3.40;2.27;;;12.50;99.90;;;;;;4968429;28;20528;-73
2024/03/16 13:14:20;;;;;;;3.37;2.60;;;12.40;99.90;;;;;;4967537;28;20955;-73
2024/03/16 13:17:05;;;;;;;4.00;3.20;;;12.40;99.90;;;;;;4968423;28;20505;-73
2024/03/16 13:19:50;;;;;;;5.37;2.80;;;12.50;99.90;;;;;;4962269;28;21128;-73
2024/03/16 13:22:37;;;;;;;5.57;3.50;;;12.60;99.90;;;;;;4981286;28;20464;-73
2024/03/16 13:25:23;;;;;;;4.47;3.30;;;12.70;99.90;;;;;;4976011;28;20445;-73
2024/03/16 13:28:07;;;;;;;4.47;3.50;;;12.70;99.90;;;;;;4971021;28;20469;-73
2024/03/16 13:30:54;;;;;;;5.23;3.33;;;12.70;99.90;;;;;;4963738;28;20650;-73
2024/03/16 13:33:39;;;;;;;4.07;2.90;;;12.70;99.90;;;;;;4964061;28;20457;-73
2024/03/16 13:36:25;;;;;;;6.73;2.83;;;12.70;99.90;;;;;;4969524;28;20860;-73
2024/03/16 13:39:09;;;;;;;3.17;2.87;;;12.60;99.90;;;;;;4973077;28;20634;-73
2024/03/16 13:41:55;;;;;;;4.60;2.57;;;12.60;99.90;;;;;;4967785;28;20524;-73
2024/03/16 13:44:41;;;;;;;2.83;1.97;;;12.60;99.90;;;;;;4970473;28;20453;-73
2024/03/16 13:47:28;;;;;;;3.73;1.83;;;12.50;99.90;;;;;;4971446;28;20608;-73
2024/03/16 13:50:14;;;;;;;3.27;2.23;;;12.40;99.90;;;;;;4976752;28;20472;-73
2024/03/16 13:52:59;;;;;;;4.20;1.50;;;12.40;99.90;;;;;;4975183;28;20453;-74
2024/03/16 13:55:46;;;;;;;2.80;1.60;;;12.30;99.90;;;;;;4974380;28;20592;-73
2024/03/16 13:58:31;;;;;;;6.70;1.60;;;12.30;99.90;;;;;;4973400;28;20984;-73
2024/03/16 14:01:20;;;;;;;2.30;1.60;;;12.20;99.90;;;;;;4971547;28;20489;-73
2024/03/16 14:04:07;;;;;;;2.63;1.60;;;12.20;99.90;;;;;;4977399;28;20517;-73
2024/03/16 14:06:52;;;;;;;2.37;1.57;;;12.10;99.90;;;;;;4976350;28;20588;-73
2024/03/16 14:09:38;;;;;;;1.97;1.40;;;12.20;99.90;;;;;;4974770;28;20452;-73
2024/03/16 14:12:23;;;;;;;3.03;1.63;;;12.20;99.90;;;;;;4977139;28;20829;-73
2024/03/16 14:15:09;;;;;;;4.40;1.70;;;12.10;99.90;;;;;;4984951;28;20583;-73
2024/03/16 14:17:53;;;;;;;1.90;1.33;;;12.00;99.90;;;;;;4975791;28;20613;-73
2024/03/16 14:20:39;;;;;;;4.10;1.63;;;11.90;99.90;;;;;;4974245;28;20468;-73
2024/03/16 14:23:24;;;;;;;2.33;1.67;;;11.80;99.90;;;;;;4973472;28;20457;-73